Time;durP1;ratioP1;P1;durP2;ratioP2;P2;SDS_P1;SDS_P2;PMS_P1;PMS_P2;Temp;Humidity;BMP_temperature;BMP_pressure;BME280_temperature;BME280_humidity;BME280_pressure;Samples;Min_cycle;Max_cycle;Signal;HPM_P1;HPM_P2
2023/07/31 00:00:23;;;;;;;0.00;0.00;;;;;;;18.89;77.73;99585.13;7347436;19;20038;-57
2023/07/31 00:02:49;;;;;;;0.10;0.10;;;;;;;18.88;77.71;99586.94;7347115;19;20011;-58
2023/07/31 00:05:15;;;;;;;0.10;0.10;;;;;;;18.89;78.20;99591.25;7350996;19;20035;-57
2023/07/31 00:07:41;;;;;;;0.10;0.10;;;;;;;18.89;77.81;99588.59;7348146;19;20018;-58
2023/07/31 00:10:06;;;;;;;0.00;0.00;;;;;;;18.82;77.65;99584.75;7349736;19;20018;-58
2023/07/31 00:12:32;;;;;;;0.00;0.00;;;;;;;18.87;77.90;99593.19;7344306;19;20026;-58
2023/07/31 00:14:58;;;;;;;0.10;0.10;;;;;;;18.87;78.06;99587.91;7340125;19;20014;-58
2023/07/31 00:17:23;;;;;;;0.10;0.10;;;;;;;18.54;77.75;99532.19;7347915;19;20015;-57
2023/07/31 00:19:50;;;;;;;0.10;0.10;;;;;;;18.86;77.28;99583.56;7348993;19;20043;-58
2023/07/31 00:22:16;;;;;;;0.10;0.10;;;;;;;18.86;76.59;99583.56;7346499;19;20010;-58
2023/07/31 00:24:41;;;;;;;0.00;0.00;;;;;;;18.83;77.51;99575.84;7349973;19;20014;-58
2023/07/31 00:27:07;;;;;;;0.10;0.10;;;;;;;18.82;77.22;99573.31;7344989;19;20650;-57
2023/07/31 00:29:32;;;;;;;0.08;0.08;;;;;;;18.76;77.83;99568.50;7347206;19;20069;-57
2023/07/31 00:31:57;;;;;;;0.05;0.05;;;;;;;18.77;77.63;99570.19;7347882;19;20010;-57
2023/07/31 00:34:23;;;;;;;0.10;0.10;;;;;;;18.74;78.40;99573.03;7349192;19;20028;-57
2023/07/31 00:36:48;;;;;;;0.10;0.10;;;;;;;18.73;78.04;99568.72;7348709;19;20019;-58
2023/07/31 00:39:13;;;;;;;0.10;0.10;;;;;;;18.68;77.70;99566.41;7348845;19;20042;-57
2023/07/31 00:41:39;;;;;;;0.10;0.10;;;;;;;18.55;77.79;99549.72;7348095;19;20557;-56
2023/07/31 00:44:04;;;;;;;0.00;0.00;;;;;;;18.67;76.72;99576.13;7346402;19;20031;-57
2023/07/31 00:46:30;;;;;;;0.00;0.00;;;;;;;18.65;78.05;99563.94;7351050;19;20018;-57
2023/07/31 00:48:56;;;;;;;0.10;0.10;;;;;;;18.61;77.77;99566.00;7346864;19;20025;-58
2023/07/31 00:51:22;;;;;;;0.10;0.10;;;;;;;18.60;77.28;99560.81;7346571;19;20754;-57
2023/07/31 00:53:47;;;;;;;0.10;0.10;;;;;;;18.39;77.81;99531.50;7348185;19;20090;-58
2023/07/31 00:56:13;;;;;;;0.00;0.00;;;;;;;18.53;77.61;99557.78;7348281;19;20018;-58
2023/07/31 00:58:39;;;;;;;0.00;0.00;;;;;;;18.53;78.01;99567.50;7346376;19;20010;-57
2023/07/31 01:01:04;;;;;;;0.00;0.00;;;;;;;18.51;78.31;99569.44;7344554;19;20101;-57
2023/07/31 01:03:30;;;;;;;0.03;0.03;;;;;;;18.50;78.39;99562.44;7349525;19;20038;-57
2023/07/31 01:06:10;;;;;;;0.10;0.10;;;;;;;18.53;77.41;99572.81;7343774;19;20741;-58
2023/07/31 01:08:53;;;;;;;0.05;0.05;;;;;;;18.50;78.13;99563.31;7339546;19;20015;-57
2023/07/31 01:11:27;;;;;;;0.05;0.05;;;;;;;18.50;77.59;99567.72;7346898;19;20017;-58
2023/07/31 01:13:54;;;;;;;0.10;0.10;;;;;;;18.45;78.49;99564.56;7342130;19;20011;-57
2023/07/31 01:16:20;;;;;;;0.10;0.10;;;;;;;18.42;78.52;99561.22;7345659;19;20037;-57
2023/07/31 01:18:45;;;;;;;0.00;0.00;;;;;;;18.40;78.42;99549.94;7342694;19;20018;-58
2023/07/31 01:21:51;;;;;;;0.10;0.10;;;;;;;18.44;77.43;99553.16;7349483;19;20735;-58
2023/07/31 01:24:17;;;;;;;0.10;0.10;;;;;;;18.37;78.71;99554.59;7245662;19;2004791;-58
2023/07/31 01:26:47;;;;;;;0.00;0.00;;;;;;;18.33;78.62;99547.81;7345082;19;20962;-58
2023/07/31 01:29:37;;;;;;;0.10;0.10;;;;;;;18.37;78.08;99560.72;7345722;19;20014;-58
2023/07/31 01:32:03;;;;;;;0.10;0.10;;;;;;;18.31;78.39;99545.31;7351515;19;20014;-57
2023/07/31 01:34:29;;;;;;;0.10;0.10;;;;;;;18.29;78.50;99547.19;7350181;19;20082;-57
2023/07/31 01:36:56;;;;;;;0.00;0.00;;;;;;;18.30;78.40;99545.44;7354586;19;20650;-58
2023/07/31 01:39:22;;;;;;;0.10;0.10;;;;;;;18.27;78.37;99535.91;7352229;19;20062;-58
2023/07/31 01:41:47;;;;;;;0.00;0.00;;;;;;;18.21;78.25;99530.25;7353814;19;20010;-58
2023/07/31 01:44:12;;;;;;;0.10;0.10;;;;;;;18.25;78.26;99532.53;7348415;19;20052;-55
2023/07/31 01:46:38;;;;;;;0.10;0.10;;;;;;;18.24;78.51;99536.13;7357354;19;20011;-58
2023/07/31 01:49:06;;;;;;;0.10;0.10;;;;;;;18.24;78.46;99541.41;7348617;19;20037;-57
2023/07/31 01:51:33;;;;;;;0.08;0.08;;;;;;;18.21;78.72;99533.72;7354992;19;20068;-58
2023/07/31 01:54:00;;;;;;;0.10;0.10;;;;;;;18.11;77.96;99520.34;7349979;19;20015;-58
2023/07/31 01:56:25;;;;;;;0.10;0.10;;;;;;;18.21;78.99;99551.38;7350361;19;20399;-58
2023/07/31 01:58:50;;;;;;;0.10;0.10;;;;;;;18.21;79.17;99554.88;7348506;19;20010;-58
2023/07/31 02:01:16;;;;;;;0.03;0.03;;;;;;;18.19;78.34;99556.75;7353614;19;20027;-58
2023/07/31 02:03:42;;;;;;;0.05;0.05;;;;;;;18.21;78.91;99549.56;7355597;19;20831;-58
2023/07/31 02:06:07;;;;;;;0.10;0.10;;;;;;;18.21;79.06;99551.38;7349894;19;20017;-58
2023/07/31 02:08:33;;;;;;;0.10;0.10;;;;;;;18.22;78.05;99548.63;7353505;19;20030;-58
2023/07/31 02:10:58;;;;;;;0.00;0.00;;;;;;;18.21;78.22;99551.38;7349741;19;20010;-57
2023/07/31 02:13:23;;;;;;;0.10;0.10;;;;;;;18.22;78.09;99558.34;7355436;19;20014;-57
2023/07/31 02:15:50;;;;;;;0.00;0.00;;;;;;;18.21;78.87;99557.50;7353855;19;20376;-58
2023/07/31 02:18:15;;;;;;;0.00;0.00;;;;;;;18.21;78.22;99562.78;7352210;19;20085;-58
2023/07/31 02:20:41;;;;;;;0.00;0.00;;;;;;;18.20;78.43;99553.19;7346484;19;20018;-57
2023/07/31 02:23:06;;;;;;;0.00;0.00;;;;;;;18.20;79.00;99555.81;7354832;19;20034;-57
2023/07/31 02:25:32;;;;;;;0.10;0.10;;;;;;;18.20;78.28;99555.81;7352630;19;20021;-58
2023/07/31 02:27:57;;;;;;;0.00;0.00;;;;;;;18.22;77.91;99563.63;7331335;19;20010;-57
2023/07/31 02:30:23;;;;;;;0.00;0.00;;;;;;;18.21;78.65;99557.50;7355039;19;20007;-57
2023/07/31 02:32:48;;;;;;;0.10;0.10;;;;;;;18.19;78.62;99554.09;7351543;19;20017;-58
2023/07/31 02:35:15;;;;;;;0.00;0.00;;;;;;;18.20;78.69;99550.53;7354592;19;20015;-58
2023/07/31 02:37:41;;;;;;;0.10;0.10;;;;;;;18.19;79.16;99553.28;7355350;19;20569;-58
2023/07/31 02:40:07;;;;;;;0.10;0.10;;;;;;;18.19;78.63;99548.81;7355261;19;20042;-57
2023/07/31 02:42:33;;;;;;;0.10;0.10;;;;;;;18.18;78.89;99546.31;7351047;19;20014;-58
2023/07/31 02:44:58;;;;;;;0.00;0.00;;;;;;;18.19;79.15;99554.09;7353196;19;20022;-57
2023/07/31 02:47:23;;;;;;;0.05;0.05;;;;;;;18.18;79.08;99541.84;7355126;19;20652;-57
2023/07/31 02:49:49;;;;;;;0.08;0.08;;;;;;;18.22;78.54;99558.34;7350107;19;20470;-58
2023/07/31 02:52:14;;;;;;;0.10;0.10;;;;;;;18.21;79.30;99560.16;7353879;19;20018;-58
2023/07/31 02:54:39;;;;;;;0.10;0.10;;;;;;;18.20;78.93;99555.81;7355023;19;20006;-58
2023/07/31 02:57:05;;;;;;;0.10;0.10;;;;;;;18.19;78.70;99554.09;7349793;19;20866;-57
2023/07/31 02:59:31;;;;;;;0.10;0.10;;;;;;;18.19;78.50;99555.91;7352329;19;20022;-58
2023/07/31 03:01:56;;;;;;;0.08;0.08;;;;;;;18.19;78.38;99551.47;7349497;19;20023;-58
2023/07/31 03:04:21;;;;;;;0.00;0.00;;;;;;;18.17;79.01;99555.19;7353326;19;20035;-57
2023/07/31 03:06:47;;;;;;;0.00;0.00;;;;;;;18.12;78.58;99539.66;7349184;19;20078;-58
2023/07/31 03:09:12;;;;;;;0.00;0.00;;;;;;;18.14;78.96;99545.66;7331437;19;20018;-57
2023/07/31 03:11:37;;;;;;;0.05;0.05;;;;;;;18.12;78.89;99537.03;7352454;19;20019;-58
2023/07/31 03:14:03;;;;;;;0.10;0.10;;;;;;;17.98;79.02;99516.03;7353238;19;20029;-58
2023/07/31 03:16:28;;;;;;;0.00;0.00;;;;;;;18.11;79.17;99535.34;7350643;19;20015;-57
2023/07/31 03:18:54;;;;;;;0.08;0.08;;;;;;;18.11;78.63;99545.91;7356405;19;20031;-57
2023/07/31 03:21:20;;;;;;;0.00;0.00;;;;;;;18.11;78.96;99533.53;7333739;19;20021;-58
2023/07/31 03:23:45;;;;;;;0.10;0.10;;;;;;;18.09;79.36;99547.81;7356278;19;20070;-58
2023/07/31 03:26:10;;;;;;;0.00;0.00;;;;;;;18.10;79.19;99544.22;7355449;19;20014;-56
2023/07/31 03:28:36;;;;;;;0.00;0.00;;;;;;;18.10;79.03;99538.94;7357523;19;20018;-57
2023/07/31 03:31:02;;;;;;;0.10;0.10;;;;;;;18.05;78.61;99533.16;7355566;19;20018;-57
2023/07/31 03:33:27;;;;;;;0.10;0.10;;;;;;;18.11;78.73;99541.47;7356323;19;20553;-56
2023/07/31 03:35:53;;;;;;;0.08;0.08;;;;;;;18.12;78.44;99532.59;7357183;19;20006;-58
2023/07/31 03:38:19;;;;;;;0.10;0.10;;;;;;;18.11;78.78;99530.91;7354239;19;20023;-58
2023/07/31 03:40:44;;;;;;;0.00;0.00;;;;;;;18.10;79.01;99526.56;7338352;19;20014;-58
2023/07/31 03:43:11;;;;;;;0.10;0.10;;;;;;;18.01;79.05;99513.19;7357620;19;20014;-58
2023/07/31 03:45:36;;;;;;;0.10;0.10;;;;;;;18.13;78.92;99536.06;7356391;19;20015;-57
2023/07/31 03:48:03;;;;;;;0.00;0.00;;;;;;;18.13;78.81;99521.06;7353235;19;20470;-57
2023/07/31 03:50:28;;;;;;;0.00;0.00;;;;;;;18.17;78.49;99519.03;7351431;19;20010;-56
2023/07/31 03:52:54;;;;;;;0.10;0.10;;;;;;;18.16;78.41;99512.06;7354029;19;20014;-56
2023/07/31 03:55:19;;;;;;;0.00;0.00;;;;;;;18.15;79.14;99515.69;7353559;19;20017;-57
2023/07/31 03:57:44;;;;;;;0.10;0.10;;;;;;;18.15;78.91;99518.31;7355081;19;20029;-58
2023/07/31 04:00:10;;;;;;;0.00;0.00;;;;;;;18.15;78.65;99523.59;7350157;19;20010;-58
2023/07/31 04:02:36;;;;;;;0.10;0.10;;;;;;;18.17;79.01;99518.19;7354166;19;20030;-57
2023/07/31 04:05:01;;;;;;;0.10;0.10;;;;;;;18.16;79.33;99527.94;7355793;19;20010;-57
2023/07/31 04:07:27;;;;;;;0.03;0.03;;;;;;;18.16;79.29;99517.34;7355406;19;20792;-58
2023/07/31 04:09:52;;;;;;;0.05;0.05;;;;;;;18.18;78.98;99520.72;7354245;19;20094;-57
2023/07/31 04:12:17;;;;;;;0.10;0.10;;;;;;;18.18;78.93;99520.72;7353276;19;20025;-58
2023/07/31 04:14:43;;;;;;;0.10;0.10;;;;;;;18.20;78.89;99521.47;7354464;19;20014;-58
2023/07/31 04:17:08;;;;;;;0.03;0.03;;;;;;;18.19;79.05;99517.13;7355521;19;20015;-58
2023/07/31 04:19:34;;;;;;;0.00;0.00;;;;;;;18.19;78.57;99527.69;7352278;19;20477;-57
2023/07/31 04:21:59;;;;;;;0.10;0.10;;;;;;;18.13;78.68;99528.13;7351352;19;20010;-58
2023/07/31 04:24:24;;;;;;;0.00;0.00;;;;;;;18.16;79.43;99527.94;7355747;19;20006;-57
2023/07/31 04:26:51;;;;;;;0.10;0.10;;;;;;;18.19;78.48;99532.97;7341840;19;20718;-57
2023/07/31 04:29:16;;;;;;;0.10;0.10;;;;;;;18.16;78.65;99541.13;7350439;19;20003;-57
2023/07/31 04:31:41;;;;;;;0.10;0.10;;;;;;;18.20;78.20;99553.19;7354947;19;20038;-58
2023/07/31 04:34:07;;;;;;;0.10;0.10;;;;;;;18.18;78.26;99547.16;7352441;19;20011;-56
2023/07/31 04:36:33;;;;;;;0.10;0.10;;;;;;;18.15;78.35;99539.47;7355756;19;20015;-58
2023/07/31 04:38:59;;;;;;;0.00;0.00;;;;;;;18.16;78.33;99533.22;7341340;19;20478;-58
2023/07/31 04:41:24;;;;;;;0.00;0.00;;;;;;;18.15;78.52;99531.53;7352436;19;20018;-56
2023/07/31 04:43:50;;;;;;;0.10;0.10;;;;;;;18.15;78.00;99537.66;7354050;19;20018;-58
2023/07/31 04:46:15;;;;;;;0.03;0.03;;;;;;;18.08;78.70;99525.00;7352440;19;21093;-56
2023/07/31 04:48:40;;;;;;;0.00;0.00;;;;;;;18.13;78.71;99536.06;7353842;19;20003;-56
2023/07/31 04:51:06;;;;;;;0.05;0.05;;;;;;;18.10;79.12;99531.88;7347881;19;20107;-58
2023/07/31 04:53:31;;;;;;;0.08;0.08;;;;;;;18.10;78.45;99533.66;7356878;19;20094;-56
2023/07/31 04:55:57;;;;;;;0.10;0.10;;;;;;;18.08;78.21;99530.28;7350144;19;20090;-57
2023/07/31 04:58:22;;;;;;;0.10;0.10;;;;;;;18.06;78.34;99529.56;7353762;19;20021;-58
2023/07/31 05:00:47;;;;;;;0.00;0.00;;;;;;;18.05;78.79;99531.34;7348425;19;20645;-56
2023/07/31 05:03:13;;;;;;;0.10;0.10;;;;;;;18.05;78.64;99536.63;7353144;19;20018;-58
2023/07/31 05:05:38;;;;;;;0.10;0.10;;;;;;;17.92;79.16;99519.13;7348546;19;20014;-57
2023/07/31 05:08:04;;;;;;;0.00;0.00;;;;;;;18.04;78.72;99544.66;7361370;19;20022;-56
2023/07/31 05:10:29;;;;;;;0.00;0.00;;;;;;;18.05;78.78;99556.94;7358500;19;20861;-56
2023/07/31 05:12:54;;;;;;;0.10;0.10;;;;;;;18.05;78.96;99557.78;7361166;19;20018;-57
2023/07/31 05:15:20;;;;;;;0.05;0.05;;;;;;;18.06;78.45;99559.44;7358215;19;20018;-56
2023/07/31 05:17:45;;;;;;;0.00;0.00;;;;;;;18.07;78.15;99569.06;7359902;19;20011;-58
2023/07/31 05:20:11;;;;;;;0.10;0.10;;;;;;;18.07;78.50;99565.56;7360486;19;20018;-57
2023/07/31 05:22:36;;;;;;;0.00;0.00;;;;;;;18.06;78.41;99555.97;7362120;19;20933;-55
2023/07/31 05:25:02;;;;;;;0.10;0.10;;;;;;;18.05;78.53;99549.84;7359586;19;20425;-58
2023/07/31 05:27:27;;;;;;;0.05;0.05;;;;;;;18.06;78.83;99553.31;7355990;19;20837;-57
2023/07/31 05:29:53;;;;;;;0.10;0.10;;;;;;;18.03;78.67;99550.88;7357982;19;20014;-58
2023/07/31 05:32:18;;;;;;;0.10;0.10;;;;;;;18.05;78.37;99551.66;7361180;19;20019;-57
2023/07/31 05:34:44;;;;;;;0.00;0.00;;;;;;;18.04;78.33;99547.28;7359674;19;20018;-57
2023/07/31 05:37:11;;;;;;;0.10;0.10;;;;;;;18.04;78.35;99540.22;7360980;19;20016;-58
2023/07/31 05:39:36;;;;;;;0.10;0.10;;;;;;;18.03;78.30;99542.97;7356727;19;20022;-57
2023/07/31 05:42:02;;;;;;;0.10;0.10;;;;;;;18.01;78.17;99539.59;7358765;19;20014;-57
2023/07/31 05:44:27;;;;;;;0.10;0.10;;;;;;;18.03;78.73;99545.59;7360210;19;20018;-57
2023/07/31 05:46:52;;;;;;;0.05;0.05;;;;;;;18.03;78.49;99542.97;7355081;19;20014;-58
2023/07/31 05:49:18;;;;;;;0.10;0.10;;;;;;;18.04;78.47;99539.38;7359239;19;20014;-57
2023/07/31 05:51:43;;;;;;;0.05;0.05;;;;;;;17.97;78.27;99538.13;7354322;19;20475;-57
2023/07/31 05:54:08;;;;;;;0.00;0.00;;;;;;;18.03;77.89;99549.09;7361084;19;20086;-58
2023/07/31 05:56:34;;;;;;;0.10;0.10;;;;;;;18.02;78.68;99536.00;7358597;19;20822;-58
2023/07/31 05:58:59;;;;;;;0.05;0.05;;;;;;;18.02;78.30;99528.91;7354655;19;20014;-57
2023/07/31 06:01:25;;;;;;;0.00;0.00;;;;;;;18.03;78.08;99533.25;7360056;19;20043;-58
2023/07/31 06:03:50;;;;;;;0.10;0.10;;;;;;;18.03;77.92;99527.13;7355687;19;20023;-57
2023/07/31 06:06:16;;;;;;;0.00;0.00;;;;;;;18.04;77.78;99529.63;7357681;19;20018;-58
2023/07/31 06:08:41;;;;;;;0.10;0.10;;;;;;;18.00;77.93;99527.34;7352279;19;20121;-56
2023/07/31 06:11:09;;;;;;;0.10;0.10;;;;;;;18.03;78.14;99516.56;7357070;19;20013;-57
2023/07/31 06:13:34;;;;;;;0.10;0.10;;;;;;;18.01;78.38;99508.75;7356184;19;20485;-57
2023/07/31 06:15:59;;;;;;;0.10;0.10;;;;;;;18.04;77.85;99512.94;7359236;19;20014;-56
2023/07/31 06:18:25;;;;;;;0.00;0.00;;;;;;;18.03;78.32;99500.69;7354721;19;20025;-56
2023/07/31 06:20:53;;;;;;;0.10;0.10;;;;;;;18.03;77.80;99519.19;7359335;19;20006;-57
2023/07/31 06:23:19;;;;;;;0.10;0.10;;;;;;;18.02;78.28;99504.31;7357685;19;20015;-57
2023/07/31 06:25:44;;;;;;;0.10;0.10;;;;;;;18.00;78.32;99516.78;7356701;19;20042;-58
2023/07/31 06:28:10;;;;;;;0.10;0.10;;;;;;;17.98;78.01;99503.69;7356742;19;20824;-57
2023/07/31 06:30:35;;;;;;;0.10;0.10;;;;;;;17.98;77.87;99497.56;7358372;19;20770;-58
2023/07/31 06:33:01;;;;;;;0.05;0.05;;;;;;;18.00;78.09;99500.94;7354086;19;20018;-56
2023/07/31 06:35:26;;;;;;;0.10;0.10;;;;;;;17.98;78.03;99492.28;7360091;19;20011;-57
2023/07/31 06:37:51;;;;;;;0.10;0.10;;;;;;;17.97;78.15;99495.88;7355012;19;20018;-57
2023/07/31 06:40:17;;;;;;;0.10;0.10;;;;;;;17.98;78.11;99486.97;7356529;19;20030;-57
2023/07/31 06:42:42;;;;;;;0.00;0.00;;;;;;;17.98;78.10;99502.84;7356414;19;20679;-57
2023/07/31 06:45:08;;;;;;;0.10;0.10;;;;;;;17.97;78.45;99487.94;7356094;19;20133;-58
2023/07/31 06:47:33;;;;;;;0.10;0.10;;;;;;;17.97;77.80;99496.72;7355122;19;20017;-57
2023/07/31 06:49:59;;;;;;;0.00;0.00;;;;;;;17.97;77.65;99517.00;7359528;19;20482;-58
2023/07/31 06:52:24;;;;;;;0.00;0.00;;;;;;;17.98;77.88;99522.16;7351555;19;20025;-57
2023/07/31 06:55:21;;;;;;;0.10;0.10;;;;;;;18.02;77.59;99528.06;7358169;19;20022;-57
2023/07/31 06:57:48;;;;;;;0.03;0.03;;;;;;;17.96;77.78;99528.53;7254230;19;2004144;-57
2023/07/31 07:00:14;;;;;;;0.03;0.03;;;;;;;17.94;77.80;99528.63;7355324;19;20019;-57
2023/07/31 07:02:39;;;;;;;0.10;0.10;;;;;;;17.93;77.93;99526.09;7352269;19;19999;-57
2023/07/31 07:05:06;;;;;;;0.00;0.00;;;;;;;17.92;78.26;99519.13;7355245;19;20014;-57
2023/07/31 07:07:32;;;;;;;0.00;0.00;;;;;;;17.91;78.34;99505.09;7351289;19;20009;-56
2023/07/31 07:09:59;;;;;;;0.10;0.10;;;;;;;17.90;78.42;99498.13;7354555;19;20639;-56
2023/07/31 07:12:25;;;;;;;0.10;0.10;;;;;;;17.92;77.54;99506.75;7350237;19;20373;-58
2023/07/31 07:14:52;;;;;;;0.00;0.00;;;;;;;17.89;78.25;99492.00;7354640;19;20014;-57
2023/07/31 07:17:18;;;;;;;;;;;;;;;17.95;77.26;99500.44;7354281;19;20022;-56
2023/07/31 07:19:43;;;;;;;0.00;0.00;;;;;;;17.91;77.51;99506.88;7356989;19;19922;-55
2023/07/31 07:22:10;;;;;;;0.10;0.10;;;;;;;17.88;78.15;99497.38;7354316;19;20021;-56
2023/07/31 07:24:35;;;;;;;0.10;0.10;;;;;;;17.75;77.56;99478.94;7357791;19;20027;-56
2023/07/31 07:27:01;;;;;;;0.00;0.00;;;;;;;17.86;77.92;99512.50;7350213;19;20465;-59
2023/07/31 07:29:26;;;;;;;0.10;0.10;;;;;;;17.73;77.88;99491.38;7352030;19;20014;-57
2023/07/31 07:31:52;;;;;;;0.10;0.10;;;;;;;17.80;77.53;99508.50;7354945;19;20534;-57
2023/07/31 07:34:17;;;;;;;0.00;0.00;;;;;;;17.85;77.51;99513.44;7351395;19;20023;-57
2023/07/31 07:36:42;;;;;;;0.00;0.00;;;;;;;17.84;77.89;99517.91;7352849;19;20542;-57
2023/07/31 07:39:10;;;;;;;0.10;0.10;;;;;;;17.82;78.06;99525.06;7356029;19;20015;-58
2023/07/31 07:41:35;;;;;;;0.10;0.10;;;;;;;17.81;78.06;99519.91;7353028;19;20018;-57
2023/07/31 07:44:00;;;;;;;0.10;0.10;;;;;;;17.81;77.64;99527.81;7354759;19;20006;-57
2023/07/31 07:46:26;;;;;;;0.10;0.10;;;;;;;17.81;77.76;99511.97;7348023;19;20014;-57
2023/07/31 07:48:51;;;;;;;0.08;0.08;;;;;;;17.79;77.62;99513.88;7353861;19;20103;-57
2023/07/31 07:51:19;;;;;;;0.05;0.05;;;;;;;17.80;77.97;99510.31;7345389;19;20014;-57
2023/07/31 07:53:45;;;;;;;0.10;0.10;;;;;;;17.76;78.29;99503.53;7352329;19;20030;-55
2023/07/31 07:56:10;;;;;;;0.10;0.10;;;;;;;17.75;77.95;99497.41;7351077;19;20048;-57
2023/07/31 07:58:36;;;;;;;0.10;0.10;;;;;;;17.75;78.52;99499.22;7352715;19;20038;-57
2023/07/31 08:01:01;;;;;;;0.10;0.10;;;;;;;17.74;78.39;99495.75;7357851;19;20014;-58
2023/07/31 08:03:27;;;;;;;0.00;0.00;;;;;;;17.73;78.47;99488.75;7351853;19;20014;-58
2023/07/31 08:05:52;;;;;;;0.00;0.00;;;;;;;17.73;78.39;99487.91;7351384;19;20014;-57
2023/07/31 08:08:18;;;;;;;0.10;0.10;;;;;;;17.73;78.69;99483.47;7351751;19;20023;-58
2023/07/31 08:10:43;;;;;;;0.00;0.00;;;;;;;17.73;78.78;99483.47;7355371;19;20044;-55
2023/07/31 08:13:12;;;;;;;0.10;0.10;;;;;;;17.63;79.22;99461.28;7349931;19;20012;-57
2023/07/31 08:15:37;;;;;;;0.10;0.10;;;;;;;17.74;78.83;99492.22;7354221;19;20011;-58
2023/07/31 08:18:03;;;;;;;0.00;0.00;;;;;;;17.76;78.50;99499.09;7353977;19;20709;-57
2023/07/31 08:20:28;;;;;;;0.10;0.10;;;;;;;17.74;79.23;99500.16;7355896;19;20029;-57
2023/07/31 08:22:53;;;;;;;0.10;0.10;;;;;;;17.80;78.70;99520.88;7355684;19;20042;-57
2023/07/31 08:25:19;;;;;;;0.00;0.00;;;;;;;17.76;78.49;99517.59;7352260;19;20467;-56
2023/07/31 08:27:44;;;;;;;0.10;0.10;;;;;;;17.82;78.43;99534.78;7351585;19;20028;-56
2023/07/31 08:30:12;;;;;;;0.10;0.10;;;;;;;17.85;78.37;99545.97;7354438;19;20021;-57
2023/07/31 08:32:37;;;;;;;0.10;0.10;;;;;;;17.87;77.94;99549.34;7355565;19;20010;-57
2023/07/31 08:35:03;;;;;;;0.10;0.10;;;;;;;17.89;78.63;99557.16;7353392;19;20061;-57
2023/07/31 08:37:28;;;;;;;0.10;0.10;;;;;;;17.92;77.96;99550.81;7354950;19;20015;-57
2023/07/31 08:39:54;;;;;;;0.10;0.10;;;;;;;17.95;77.85;99550.63;7357827;19;20007;-57
2023/07/31 08:42:20;;;;;;;0.03;0.03;;;;;;;17.93;77.86;99547.22;7360669;19;20006;-57
2023/07/31 08:44:46;;;;;;;0.10;0.10;;;;;;;17.95;77.65;99553.25;7347700;19;20018;-57
2023/07/31 08:47:12;;;;;;;0.10;0.10;;;;;;;17.94;77.47;99543.63;7359419;19;20037;-57
2023/07/31 08:49:38;;;;;;;0.00;0.00;;;;;;;17.93;77.89;99541.94;7361145;19;20019;-57
2023/07/31 08:52:04;;;;;;;0.00;0.00;;;;;;;17.88;77.82;99532.53;7358771;19;20102;-55
2023/07/31 08:54:32;;;;;;;0.10;0.10;;;;;;;17.87;77.51;99520.28;7357285;19;20340;-56
2023/07/31 08:56:59;;;;;;;0.10;0.10;;;;;;;17.78;77.35;99502.47;7358762;19;20735;-55
2023/07/31 08:59:28;;;;;;;0.08;0.08;;;;;;;17.82;77.46;99513.66;7358848;19;20011;-57
2023/07/31 09:01:57;;;;;;;0.00;0.00;;;;;;;17.78;77.66;99507.75;7353214;19;20021;-58
2023/07/31 09:04:23;;;;;;;0.10;0.10;;;;;;;17.73;77.88;99499.31;7353120;19;20035;-57
2023/07/31 09:06:50;;;;;;;0.00;0.00;;;;;;;17.71;78.25;99488.00;7358170;19;20014;-57
2023/07/31 09:09:16;;;;;;;0.08;0.08;;;;;;;17.69;77.55;99487.28;7353704;19;20018;-57
2023/07/31 09:11:41;;;;;;;0.10;0.10;;;;;;;17.67;78.06;99499.72;7357939;19;20489;-58
2023/07/31 09:14:09;;;;;;;0.08;0.08;;;;;;;17.69;78.44;99491.69;7355337;19;20015;-57
2023/07/31 09:16:34;;;;;;;0.10;0.10;;;;;;;17.67;78.31;99489.16;7360845;19;20351;-58
2023/07/31 09:19:01;;;;;;;0.10;0.10;;;;;;;17.68;78.87;99485.56;7358987;19;20045;-58
2023/07/31 09:21:27;;;;;;;0.10;0.10;;;;;;;17.70;78.64;99494.22;7357398;19;20050;-56
2023/07/31 09:23:54;;;;;;;0.10;0.10;;;;;;;17.74;78.06;99495.75;7359269;19;20049;-57
2023/07/31 09:26:36;;;;;;;0.10;0.10;;;;;;;17.81;78.10;99494.34;7337199;19;20018;-57
2023/07/31 09:29:07;;;;;;;0.03;0.03;;;;;;;17.82;78.82;99493.38;7354912;19;20794;-57
2023/07/31 09:31:41;;;;;;;0.10;0.10;;;;;;;17.86;78.24;99494.84;7361675;19;20011;-58
2023/07/31 09:34:07;;;;;;;0.10;0.10;;;;;;;17.85;78.44;99508.16;7354436;19;20010;-58
2023/07/31 09:36:32;;;;;;;0.10;0.10;;;;;;;17.85;77.82;99511.66;7358822;19;20018;-58
2023/07/31 09:39:04;;;;;;;0.10;0.10;;;;;;;17.82;77.98;99509.22;7357977;19;20039;-56
2023/07/31 09:41:30;;;;;;;0.10;0.10;;;;;;;17.86;77.57;99526.53;7360694;19;20010;-58
2023/07/31 09:43:56;;;;;;;0.10;0.10;;;;;;;17.86;78.15;99521.25;7359639;19;20027;-57
2023/07/31 09:46:21;;;;;;;0.00;0.00;;;;;;;17.87;78.03;99528.22;7358073;19;20029;-56
2023/07/31 09:48:47;;;;;;;0.03;0.03;;;;;;;17.88;78.23;99529.91;7358962;19;20022;-58
2023/07/31 09:51:12;;;;;;;0.10;0.10;;;;;;;17.88;77.92;99529.91;7355012;19;20372;-57
2023/07/31 09:53:38;;;;;;;0.10;0.10;;;;;;;17.88;77.55;99535.19;7358329;19;20610;-57
2023/07/31 09:56:04;;;;;;;0.10;0.10;;;;;;;17.89;77.60;99526.34;7354769;19;20010;-58
2023/07/31 09:58:34;;;;;;;0.10;0.10;;;;;;;17.91;77.59;99533.28;7358358;19;20017;-58
2023/07/31 10:01:02;;;;;;;0.00;0.00;;;;;;;17.88;77.87;99532.53;7357676;19;20015;-58
2023/07/31 10:03:31;;;;;;;0.10;0.10;;;;;;;17.82;78.20;99519.78;7360853;19;20030;-56
2023/07/31 10:05:58;;;;;;;0.10;0.10;;;;;;;17.86;78.25;99529.19;7359663;19;20007;-58
2023/07/31 10:08:30;;;;;;;0.15;0.15;;;;;;;17.90;77.91;99527.19;7359103;19;20458;-57
2023/07/31 10:10:58;;;;;;;0.10;0.10;;;;;;;17.89;78.38;99521.06;7356242;19;20011;-57
2023/07/31 10:13:24;;;;;;;0.10;0.10;;;;;;;17.87;78.29;99517.66;7356123;19;20073;-58
2023/07/31 10:15:51;;;;;;;0.10;0.10;;;;;;;17.91;77.90;99512.16;7360362;19;20154;-57
2023/07/31 10:18:18;;;;;;;0.03;0.03;;;;;;;17.95;78.00;99508.34;7354515;19;20114;-57
2023/07/31 10:20:45;;;;;;;0.10;0.10;;;;;;;17.94;78.04;99517.22;7352748;19;20022;-56
2023/07/31 10:23:11;;;;;;;0.10;0.10;;;;;;;17.78;77.52;99481.34;7358341;19;20653;-58
2023/07/31 10:25:38;;;;;;;0.10;0.10;;;;;;;17.80;77.48;99490.00;7356898;19;20011;-57
2023/07/31 10:28:04;;;;;;;0.00;0.00;;;;;;;17.91;77.83;99506.88;7357494;19;20014;-57
2023/07/31 10:30:32;;;;;;;0.10;0.10;;;;;;;17.92;77.58;99503.28;7359033;19;20011;-57
2023/07/31 10:32:58;;;;;;;0.10;0.10;;;;;;;17.80;77.28;99483.91;7352133;19;20022;-57
2023/07/31 10:35:24;;;;;;;0.10;0.10;;;;;;;17.86;77.24;99507.22;7360264;19;20014;-57
2023/07/31 10:37:50;;;;;;;0.10;0.10;;;;;;;17.76;77.22;99485.91;7355898;19;20006;-57
2023/07/31 10:40:23;;;;;;;0.05;0.05;;;;;;;17.79;77.19;99501.53;7357903;19;20034;-58
2023/07/31 10:42:55;;;;;;;0.10;0.10;;;;;;;17.72;77.62;99497.59;7356836;19;20014;-57
2023/07/31 10:45:28;;;;;;;0.10;0.10;;;;;;;17.69;77.48;99503.13;7356279;19;20823;-57
2023/07/31 10:48:01;;;;;;;0.10;0.10;;;;;;;17.62;77.68;99501.84;7357819;19;20042;-57
2023/07/31 10:50:29;;;;;;;0.00;0.00;;;;;;;17.57;77.89;99519.81;7355654;19;20014;-56
2023/07/31 10:52:56;;;;;;;0.10;0.10;;;;;;;17.44;78.38;99489.97;7357151;19;20317;-57
2023/07/31 10:55:39;;;;;;;0.10;0.10;;;;;;;17.50;77.77;99502.72;7355872;19;20018;-57
2023/07/31 10:58:12;;;;;;;0.00;0.00;;;;;;;17.46;77.81;99509.16;7357014;19;20018;-57
2023/07/31 11:00:42;;;;;;;0.10;0.10;;;;;;;17.40;79.39;99496.41;7355444;19;20054;-58
2023/07/31 11:03:14;;;;;;;0.00;0.00;;;;;;;17.43;78.36;99501.44;7333262;19;20019;-58
2023/07/31 11:05:43;;;;;;;0.08;0.08;;;;;;;17.43;79.13;99496.16;7354574;19;20838;-57
2023/07/31 11:08:12;;;;;;;0.00;0.00;;;;;;;17.42;79.66;99489.22;7353310;19;20018;-58
2023/07/31 11:10:37;;;;;;;0.10;0.10;;;;;;;17.31;79.56;99467.06;7358055;19;20014;-58
2023/07/31 11:13:05;;;;;;;0.10;0.10;;;;;;;17.46;79.68;99488.06;7354731;19;20027;-58
2023/07/31 11:15:31;;;;;;;0.10;0.10;;;;;;;17.47;79.86;99476.53;7355862;19;20014;-55
2023/07/31 11:17:58;;;;;;;0.00;0.00;;;;;;;17.51;79.69;99484.13;7359336;19;20481;-56
2023/07/31 11:20:24;;;;;;;0.00;0.00;;;;;;;17.50;79.47;99476.34;7358653;19;20349;-59
2023/07/31 11:22:49;;;;;;;0.10;0.10;;;;;;;17.55;80.21;99476.84;7359101;19;20002;-58
2023/07/31 11:25:16;;;;;;;0.10;0.10;;;;;;;17.58;80.07;99477.44;7356176;19;20078;-58
2023/07/31 11:27:43;;;;;;;0.05;0.05;;;;;;;17.62;80.27;99475.44;7354403;19;20026;-57
2023/07/31 11:30:09;;;;;;;0.10;0.10;;;;;;;17.68;79.57;99488.19;7358083;19;20027;-57